sensor_id;sensor_type;location;lat;lon;timestamp;temperature;humidity
13310;DHT22;6723;48.256;16.402;2022-11-15T00:00:51;7.20;99.90
13310;DHT22;6723;48.256;16.402;2022-11-15T00:03:19;7.20;99.90
13310;DHT22;6723;48.256;16.402;2022-11-15T00:05:46;7.20;99.90
13310;DHT22;6723;48.256;16.402;2022-11-15T00:08:12;7.20;99.90
13310;DHT22;6723;48.256;16.402;2022-11-15T00:10:38;7.10;99.90
13310;DHT22;6723;48.256;16.402;2022-11-15T00:13:11;7.20;99.90
13310;DHT22;6723;48.256;16.402;2022-11-15T00:15:50;7.20;99.90
13310;DHT22;6723;48.256;16.402;2022-11-15T00:18:16;7.20;99.90
13310;DHT22;6723;48.256;16.402;2022-11-15T00:20:42;7.20;99.90
13310;DHT22;6723;48.256;16.402;2022-11-15T00:23:09;7.20;99.90
13310;DHT22;6723;48.256;16.402;2022-11-15T00:25:35;7.20;99.90
13310;DHT22;6723;48.256;16.402;2022-11-15T00:28:01;7.40;99.90
13310;DHT22;6723;48.256;16.402;2022-11-15T00:30:28;7.30;99.90
13310;DHT22;6723;48.256;16.402;2022-11-15T00:33:02;7.30;99.90
13310;DHT22;6723;48.256;16.402;2022-11-15T00:35:30;7.30;99.90
13310;DHT22;6723;48.256;16.402;2022-11-15T00:37:56;7.20;99.90
13310;DHT22;6723;48.256;16.402;2022-11-15T00:40:22;7.30;99.90
13310;DHT22;6723;48.256;16.402;2022-11-15T00:45:57;7.10;99.90
13310;DHT22;6723;48.256;16.402;2022-11-15T00:48:23;7.20;99.90
13310;DHT22;6723;48.256;16.402;2022-11-15T00:50:49;7.10;99.90
13310;DHT22;6723;48.256;16.402;2022-11-15T00:53:16;7.30;99.90
13310;DHT22;6723;48.256;16.402;2022-11-15T00:55:42;7.30;99.90
13310;DHT22;6723;48.256;16.402;2022-11-15T00:58:08;7.20;99.90
13310;DHT22;6723;48.256;16.402;2022-11-15T01:00:34;7.30;99.90
13310;DHT22;6723;48.256;16.402;2022-11-15T01:03:00;7.20;99.90
13310;DHT22;6723;48.256;16.402;2022-11-15T01:05:27;7.20;99.90
13310;DHT22;6723;48.256;16.402;2022-11-15T01:07:54;7.10;99.90
13310;DHT22;6723;48.256;16.402;2022-11-15T01:10:21;7.10;99.90
13310;DHT22;6723;48.256;16.402;2022-11-15T01:12:48;7.20;99.90
13310;DHT22;6723;48.256;16.402;2022-11-15T01:15:14;7.30;99.90
13310;DHT22;6723;48.256;16.402;2022-11-15T01:17:39;7.20;99.90
13310;DHT22;6723;48.256;16.402;2022-11-15T01:20:06;7.30;99.90
13310;DHT22;6723;48.256;16.402;2022-11-15T01:22:46;7.30;99.90
13310;DHT22;6723;48.256;16.402;2022-11-15T01:25:12;7.40;99.90
13310;DHT22;6723;48.256;16.402;2022-11-15T01:27:38;7.30;99.90
13310;DHT22;6723;48.256;16.402;2022-11-15T01:30:04;7.30;99.90
13310;DHT22;6723;48.256;16.402;2022-11-15T01:32:31;7.30;99.90
13310;DHT22;6723;48.256;16.402;2022-11-15T01:34:56;7.30;99.90
13310;DHT22;6723;48.256;16.402;2022-11-15T01:37:25;7.20;99.90
13310;DHT22;6723;48.256;16.402;2022-11-15T01:39:51;7.20;99.90
13310;DHT22;6723;48.256;16.402;2022-11-15T01:42:18;7.30;99.90
13310;DHT22;6723;48.256;16.402;2022-11-15T01:44:47;7.30;99.90
13310;DHT22;6723;48.256;16.402;2022-11-15T01:47:20;7.30;99.90
13310;DHT22;6723;48.256;16.402;2022-11-15T01:50:00;7.30;99.90
13310;DHT22;6723;48.256;16.402;2022-11-15T01:52:28;7.30;99.90
13310;DHT22;6723;48.256;16.402;2022-11-15T01:55:16;7.20;99.90
13310;DHT22;6723;48.256;16.402;2022-11-15T01:57:46;7.20;99.90
13310;DHT22;6723;48.256;16.402;2022-11-15T02:00:14;7.20;99.90
13310;DHT22;6723;48.256;16.402;2022-11-15T02:02:40;7.20;99.90
13310;DHT22;6723;48.256;16.402;2022-11-15T02:05:07;7.20;99.90
13310;DHT22;6723;48.256;16.402;2022-11-15T02:07:34;7.20;99.90
13310;DHT22;6723;48.256;16.402;2022-11-15T02:10:08;7.20;99.90
13310;DHT22;6723;48.256;16.402;2022-11-15T02:12:35;7.30;99.90
13310;DHT22;6723;48.256;16.402;2022-11-15T02:15:02;7.20;99.90
13310;DHT22;6723;48.256;16.402;2022-11-15T02:17:33;7.30;99.90
13310;DHT22;6723;48.256;16.402;2022-11-15T02:33:46;7.30;99.90
13310;DHT22;6723;48.256;16.402;2022-11-15T02:38:58;7.30;99.90
13310;DHT22;6723;48.256;16.402;2022-11-15T02:44:32;7.30;99.90
13310;DHT22;6723;48.256;16.402;2022-11-15T02:47:03;7.40;99.90
13310;DHT22;6723;48.256;16.402;2022-11-15T02:49:53;7.30;99.90
13310;DHT22;6723;48.256;16.402;2022-11-15T02:52:21;7.40;99.90
13310;DHT22;6723;48.256;16.402;2022-11-15T02:54:55;7.40;99.90
13310;DHT22;6723;48.256;16.402;2022-11-15T03:00:10;7.30;99.90
13310;DHT22;6723;48.256;16.402;2022-11-15T03:08:48;7.30;99.90
13310;DHT22;6723;48.256;16.402;2022-11-15T03:11:18;7.30;99.90
13310;DHT22;6723;48.256;16.402;2022-11-15T03:14:01;7.40;99.90
13310;DHT22;6723;48.256;16.402;2022-11-15T03:21:32;7.60;99.90
13310;DHT22;6723;48.256;16.402;2022-11-15T03:24:03;7.60;99.90
13310;DHT22;6723;48.256;16.402;2022-11-15T03:26:33;7.60;99.90
13310;DHT22;6723;48.256;16.402;2022-11-15T03:29:20;7.70;99.90
13310;DHT22;6723;48.256;16.402;2022-11-15T03:32:03;7.70;99.90
13310;DHT22;6723;48.256;16.402;2022-11-15T03:34:56;7.60;99.90
13310;DHT22;6723;48.256;16.402;2022-11-15T03:40:11;7.70;99.90
13310;DHT22;6723;48.256;16.402;2022-11-15T03:43:02;7.60;99.90
13310;DHT22;6723;48.256;16.402;2022-11-15T03:46:36;7.70;99.90
13310;DHT22;6723;48.256;16.402;2022-11-15T03:48:56;7.70;99.90
13310;DHT22;6723;48.256;16.402;2022-11-15T03:51:23;7.70;99.90
13310;DHT22;6723;48.256;16.402;2022-11-15T03:53:50;7.70;99.90
13310;DHT22;6723;48.256;16.402;2022-11-15T03:56:16;7.60;99.90
13310;DHT22;6723;48.256;16.402;2022-11-15T03:58:42;7.60;99.90
13310;DHT22;6723;48.256;16.402;2022-11-15T04:01:07;7.60;99.90
13310;DHT22;6723;48.256;16.402;2022-11-15T04:03:33;7.50;99.90
13310;DHT22;6723;48.256;16.402;2022-11-15T04:05:59;7.50;99.90
13310;DHT22;6723;48.256;16.402;2022-11-15T04:08:24;7.50;99.90
13310;DHT22;6723;48.256;16.402;2022-11-15T04:10:50;7.60;99.90
13310;DHT22;6723;48.256;16.402;2022-11-15T04:13:16;7.60;99.90
13310;DHT22;6723;48.256;16.402;2022-11-15T04:15:45;7.60;99.90
13310;DHT22;6723;48.256;16.402;2022-11-15T04:18:10;7.60;99.90
13310;DHT22;6723;48.256;16.402;2022-11-15T04:20:36;7.60;99.90
13310;DHT22;6723;48.256;16.402;2022-11-15T04:23:22;7.60;99.90
13310;DHT22;6723;48.256;16.402;2022-11-15T04:26:10;7.50;99.90
13310;DHT22;6723;48.256;16.402;2022-11-15T04:28:37;7.50;99.90
13310;DHT22;6723;48.256;16.402;2022-11-15T04:31:26;7.60;99.90
13310;DHT22;6723;48.256;16.402;2022-11-15T04:33:53;7.60;99.90
13310;DHT22;6723;48.256;16.402;2022-11-15T04:36:19;7.50;99.90
13310;DHT22;6723;48.256;16.402;2022-11-15T04:39:03;7.60;99.90
13310;DHT22;6723;48.256;16.402;2022-11-15T04:41:29;7.50;99.90
13310;DHT22;6723;48.256;16.402;2022-11-15T04:43:55;7.60;99.90
13310;DHT22;6723;48.256;16.402;2022-11-15T04:46:22;7.60;99.90
13310;DHT22;6723;48.256;16.402;2022-11-15T04:48:49;7.60;99.90
13310;DHT22;6723;48.256;16.402;2022-11-15T04:51:16;7.60;99.90
13310;DHT22;6723;48.256;16.402;2022-11-15T04:53:42;7.60;99.90
13310;DHT22;6723;48.256;16.402;2022-11-15T04:56:08;7.60;99.90
13310;DHT22;6723;48.256;16.402;2022-11-15T04:58:34;7.60;99.90
13310;DHT22;6723;48.256;16.402;2022-11-15T05:01:14;7.60;99.90
13310;DHT22;6723;48.256;16.402;2022-11-15T05:03:41;7.60;99.90
13310;DHT22;6723;48.256;16.402;2022-11-15T05:06:25;7.60;99.90
13310;DHT22;6723;48.256;16.402;2022-11-15T05:08:51;7.60;99.90
13310;DHT22;6723;48.256;16.402;2022-11-15T05:11:17;7.60;99.90
13310;DHT22;6723;48.256;16.402;2022-11-15T05:13:43;7.60;99.90
13310;DHT22;6723;48.256;16.402;2022-11-15T05:16:09;7.60;99.90
13310;DHT22;6723;48.256;16.402;2022-11-15T05:18:34;7.50;99.90
13310;DHT22;6723;48.256;16.402;2022-11-15T05:21:08;7.60;99.90
13310;DHT22;6723;48.256;16.402;2022-11-15T05:23:35;7.60;99.90
13310;DHT22;6723;48.256;16.402;2022-11-15T05:26:02;7.60;99.90
13310;DHT22;6723;48.256;16.402;2022-11-15T05:28:28;7.50;99.90
13310;DHT22;6723;48.256;16.402;2022-11-15T05:31:01;7.50;99.90
13310;DHT22;6723;48.256;16.402;2022-11-15T05:33:27;7.50;99.90
13310;DHT22;6723;48.256;16.402;2022-11-15T05:36:12;7.60;99.90
13310;DHT22;6723;48.256;16.402;2022-11-15T05:38:39;7.50;99.90
13310;DHT22;6723;48.256;16.402;2022-11-15T05:41:06;7.50;99.90
13310;DHT22;6723;48.256;16.402;2022-11-15T05:43:34;7.50;99.90
13310;DHT22;6723;48.256;16.402;2022-11-15T05:46:02;7.50;99.90
13310;DHT22;6723;48.256;16.402;2022-11-15T05:48:29;7.40;99.90
13310;DHT22;6723;48.256;16.402;2022-11-15T05:50:55;7.40;99.90
13310;DHT22;6723;48.256;16.402;2022-11-15T05:53:23;7.40;99.90
13310;DHT22;6723;48.256;16.402;2022-11-15T05:55:50;7.30;99.90
13310;DHT22;6723;48.256;16.402;2022-11-15T05:58:16;7.30;99.90
13310;DHT22;6723;48.256;16.402;2022-11-15T06:00:42;7.40;99.90
13310;DHT22;6723;48.256;16.402;2022-11-15T06:03:09;7.30;99.90
13310;DHT22;6723;48.256;16.402;2022-11-15T06:05:35;7.30;99.90
13310;DHT22;6723;48.256;16.402;2022-11-15T06:08:00;7.30;99.90
13310;DHT22;6723;48.256;16.402;2022-11-15T06:10:26;7.20;99.90
13310;DHT22;6723;48.256;16.402;2022-11-15T06:13:03;7.20;99.90
13310;DHT22;6723;48.256;16.402;2022-11-15T06:15:32;7.20;99.90
13310;DHT22;6723;48.256;16.402;2022-11-15T06:17:59;7.20;99.90
13310;DHT22;6723;48.256;16.402;2022-11-15T06:20:26;7.20;99.90
13310;DHT22;6723;48.256;16.402;2022-11-15T06:23:03;7.20;99.90
13310;DHT22;6723;48.256;16.402;2022-11-15T06:25:30;7.20;99.90
13310;DHT22;6723;48.256;16.402;2022-11-15T06:27:58;7.20;99.90
13310;DHT22;6723;48.256;16.402;2022-11-15T06:30:25;7.10;99.90
13310;DHT22;6723;48.256;16.402;2022-11-15T06:32:51;7.10;99.90
13310;DHT22;6723;48.256;16.402;2022-11-15T06:35:23;7.10;99.90
13310;DHT22;6723;48.256;16.402;2022-11-15T06:37:49;7.10;99.90
13310;DHT22;6723;48.256;16.402;2022-11-15T06:40:15;7.10;99.90
13310;DHT22;6723;48.256;16.402;2022-11-15T06:42:40;7.10;99.90
13310;DHT22;6723;48.256;16.402;2022-11-15T06:45:07;7.10;99.90
13310;DHT22;6723;48.256;16.402;2022-11-15T06:47:35;7.10;99.90
13310;DHT22;6723;48.256;16.402;2022-11-15T06:50:09;7.10;99.90
13310;DHT22;6723;48.256;16.402;2022-11-15T06:52:35;7.20;99.90
13310;DHT22;6723;48.256;16.402;2022-11-15T06:55:01;7.20;99.90
13310;DHT22;6723;48.256;16.402;2022-11-15T06:57:26;7.20;99.90
13310;DHT22;6723;48.256;16.402;2022-11-15T06:59:52;7.20;99.90
13310;DHT22;6723;48.256;16.402;2022-11-15T07:02:18;7.30;99.90
13310;DHT22;6723;48.256;16.402;2022-11-15T07:04:43;7.20;99.90
13310;DHT22;6723;48.256;16.402;2022-11-15T07:07:10;7.30;99.90
13310;DHT22;6723;48.256;16.402;2022-11-15T07:09:41;7.30;99.90
13310;DHT22;6723;48.256;16.402;2022-11-15T07:12:06;7.30;99.90
13310;DHT22;6723;48.256;16.402;2022-11-15T07:14:32;7.40;99.90
13310;DHT22;6723;48.256;16.402;2022-11-15T07:16:58;7.40;99.90
13310;DHT22;6723;48.256;16.402;2022-11-15T07:19:27;7.40;99.90
13310;DHT22;6723;48.256;16.402;2022-11-15T07:21:53;7.40;99.90
13310;DHT22;6723;48.256;16.402;2022-11-15T07:24:19;7.30;99.90
13310;DHT22;6723;48.256;16.402;2022-11-15T07:26:44;7.30;99.90
13310;DHT22;6723;48.256;16.402;2022-11-15T07:29:10;7.40;99.90
13310;DHT22;6723;48.256;16.402;2022-11-15T07:31:36;7.40;99.90
13310;DHT22;6723;48.256;16.402;2022-11-15T07:34:02;7.50;99.90
13310;DHT22;6723;48.256;16.402;2022-11-15T07:36:28;7.40;99.90
13310;DHT22;6723;48.256;16.402;2022-11-15T07:38:53;7.50;99.90
13310;DHT22;6723;48.256;16.402;2022-11-15T07:41:19;7.60;99.90
13310;DHT22;6723;48.256;16.402;2022-11-15T07:43:45;7.50;99.90
13310;DHT22;6723;48.256;16.402;2022-11-15T07:46:10;7.60;99.90
13310;DHT22;6723;48.256;16.402;2022-11-15T07:48:37;7.50;99.90
13310;DHT22;6723;48.256;16.402;2022-11-15T07:51:06;7.50;99.90
13310;DHT22;6723;48.256;16.402;2022-11-15T07:53:32;7.60;99.90
13310;DHT22;6723;48.256;16.402;2022-11-15T07:55:58;7.70;99.90
13310;DHT22;6723;48.256;16.402;2022-11-15T07:58:24;7.70;99.90
13310;DHT22;6723;48.256;16.402;2022-11-15T08:00:50;7.60;99.90
13310;DHT22;6723;48.256;16.402;2022-11-15T08:03:16;7.70;99.90
13310;DHT22;6723;48.256;16.402;2022-11-15T08:05:42;7.60;99.90
13310;DHT22;6723;48.256;16.402;2022-11-15T08:08:12;7.70;99.90
13310;DHT22;6723;48.256;16.402;2022-11-15T08:10:38;7.90;99.90
13310;DHT22;6723;48.256;16.402;2022-11-15T08:13:08;8.20;99.90
13310;DHT22;6723;48.256;16.402;2022-11-15T08:15:35;8.30;99.90
13310;DHT22;6723;48.256;16.402;2022-11-15T08:18:09;8.20;99.90
13310;DHT22;6723;48.256;16.402;2022-11-15T08:20:35;8.20;99.90
13310;DHT22;6723;48.256;16.402;2022-11-15T08:23:03;8.10;99.90
13310;DHT22;6723;48.256;16.402;2022-11-15T08:25:33;8.10;99.90
13310;DHT22;6723;48.256;16.402;2022-11-15T08:28:02;8.10;99.90
13310;DHT22;6723;48.256;16.402;2022-11-15T08:30:28;8.10;99.90
13310;DHT22;6723;48.256;16.402;2022-11-15T08:32:57;8.10;99.90
13310;DHT22;6723;48.256;16.402;2022-11-15T08:35:24;8.10;99.90
13310;DHT22;6723;48.256;16.402;2022-11-15T08:37:51;8.00;99.90
13310;DHT22;6723;48.256;16.402;2022-11-15T08:40:17;8.10;99.90
13310;DHT22;6723;48.256;16.402;2022-11-15T08:42:46;8.10;99.90
13310;DHT22;6723;48.256;16.402;2022-11-15T08:45:13;8.20;99.90
13310;DHT22;6723;48.256;16.402;2022-11-15T08:47:39;8.30;99.90
13310;DHT22;6723;48.256;16.402;2022-11-15T08:50:05;8.40;99.90
13310;DHT22;6723;48.256;16.402;2022-11-15T08:52:31;8.40;99.90
13310;DHT22;6723;48.256;16.402;2022-11-15T08:54:58;8.30;99.90
13310;DHT22;6723;48.256;16.402;2022-11-15T08:57:29;8.40;99.90
13310;DHT22;6723;48.256;16.402;2022-11-15T08:59:56;8.40;99.90
13310;DHT22;6723;48.256;16.402;2022-11-15T09:02:22;8.20;99.90
13310;DHT22;6723;48.256;16.402;2022-11-15T09:04:48;8.10;99.90
13310;DHT22;6723;48.256;16.402;2022-11-15T09:07:14;8.10;99.90
13310;DHT22;6723;48.256;16.402;2022-11-15T09:09:40;8.00;99.90
13310;DHT22;6723;48.256;16.402;2022-11-15T09:12:07;8.00;99.90
13310;DHT22;6723;48.256;16.402;2022-11-15T09:14:34;8.00;99.90
13310;DHT22;6723;48.256;16.402;2022-11-15T09:17:00;8.00;99.90
13310;DHT22;6723;48.256;16.402;2022-11-15T09:19:27;8.00;99.90
13310;DHT22;6723;48.256;16.402;2022-11-15T09:21:53;8.10;99.90
13310;DHT22;6723;48.256;16.402;2022-11-15T09:24:26;8.00;99.90
13310;DHT22;6723;48.256;16.402;2022-11-15T09:26:52;7.90;99.90
13310;DHT22;6723;48.256;16.402;2022-11-15T09:29:18;7.90;99.90
13310;DHT22;6723;48.256;16.402;2022-11-15T09:31:46;7.90;99.90
13310;DHT22;6723;48.256;16.402;2022-11-15T09:34:12;7.90;99.90
13310;DHT22;6723;48.256;16.402;2022-11-15T09:36:38;7.90;99.90
13310;DHT22;6723;48.256;16.402;2022-11-15T09:39:04;8.00;99.90
13310;DHT22;6723;48.256;16.402;2022-11-15T09:44:40;8.10;99.90
13310;DHT22;6723;48.256;16.402;2022-11-15T09:47:49;8.00;99.90
13310;DHT22;6723;48.256;16.402;2022-11-15T09:50:21;8.10;99.90
13310;DHT22;6723;48.256;16.402;2022-11-15T09:52:52;8.10;99.90
13310;DHT22;6723;48.256;16.402;2022-11-15T09:55:32;8.10;99.90
13310;DHT22;6723;48.256;16.402;2022-11-15T09:58:24;8.10;99.90
13310;DHT22;6723;48.256;16.402;2022-11-15T10:00:52;8.10;99.90
13310;DHT22;6723;48.256;16.402;2022-11-15T10:03:33;8.10;99.90
13310;DHT22;6723;48.256;16.402;2022-11-15T10:06:02;8.20;99.90
13310;DHT22;6723;48.256;16.402;2022-11-15T10:11:34;8.20;99.90
13310;DHT22;6723;48.256;16.402;2022-11-15T10:14:05;8.40;99.90
13310;DHT22;6723;48.256;16.402;2022-11-15T10:22:28;8.50;99.90
13310;DHT22;6723;48.256;16.402;2022-11-15T10:27:40;8.50;99.90
13310;DHT22;6723;48.256;16.402;2022-11-15T10:30:13;8.50;99.90
13310;DHT22;6723;48.256;16.402;2022-11-15T10:32:43;8.60;99.90
13310;DHT22;6723;48.256;16.402;2022-11-15T10:35:28;8.60;99.90
13310;DHT22;6723;48.256;16.402;2022-11-15T10:38:10;8.60;99.90
13310;DHT22;6723;48.256;16.402;2022-11-15T10:40:37;8.50;99.90
13310;DHT22;6723;48.256;16.402;2022-11-15T10:43:16;8.70;99.90
13310;DHT22;6723;48.256;16.402;2022-11-15T10:45:43;8.70;99.90
13310;DHT22;6723;48.256;16.402;2022-11-15T10:50:42;8.70;99.90
13310;DHT22;6723;48.256;16.402;2022-11-15T10:53:33;8.70;99.90
13310;DHT22;6723;48.256;16.402;2022-11-15T10:56:12;8.80;99.90
13310;DHT22;6723;48.256;16.402;2022-11-15T10:58:59;8.80;99.90
13310;DHT22;6723;48.256;16.402;2022-11-15T11:01:29;8.80;99.90
13310;DHT22;6723;48.256;16.402;2022-11-15T11:04:06;8.70;99.90
13310;DHT22;6723;48.256;16.402;2022-11-15T11:11:52;8.60;99.90
13310;DHT22;6723;48.256;16.402;2022-11-15T11:14:23;8.60;99.90
13310;DHT22;6723;48.256;16.402;2022-11-15T11:17:16;8.60;99.90
13310;DHT22;6723;48.256;16.402;2022-11-15T11:22:22;8.70;99.90
13310;DHT22;6723;48.256;16.402;2022-11-15T11:31:12;8.70;99.90
13310;DHT22;6723;48.256;16.402;2022-11-15T11:36:40;8.80;99.90
13310;DHT22;6723;48.256;16.402;2022-11-15T11:42:48;8.80;99.90
13310;DHT22;6723;48.256;16.402;2022-11-15T11:45:27;8.80;99.90
13310;DHT22;6723;48.256;16.402;2022-11-15T11:48:14;8.60;99.90
13310;DHT22;6723;48.256;16.402;2022-11-15T11:50:42;8.70;99.90
13310;DHT22;6723;48.256;16.402;2022-11-15T11:56:33;8.90;99.90
13310;DHT22;6723;48.256;16.402;2022-11-15T11:59:32;9.00;99.90
13310;DHT22;6723;48.256;16.402;2022-11-15T12:02:17;9.10;99.90
13310;DHT22;6723;48.256;16.402;2022-11-15T12:04:49;9.00;99.90
13310;DHT22;6723;48.256;16.402;2022-11-15T12:07:31;9.00;99.90
13310;DHT22;6723;48.256;16.402;2022-11-15T12:10:19;9.10;99.90
13310;DHT22;6723;48.256;16.402;2022-11-15T12:18:24;9.00;99.90
13310;DHT22;6723;48.256;16.402;2022-11-15T12:21:07;8.90;99.90
13310;DHT22;6723;48.256;16.402;2022-11-15T12:23:47;8.90;99.90
13310;DHT22;6723;48.256;16.402;2022-11-15T12:26:31;8.80;99.90
13310;DHT22;6723;48.256;16.402;2022-11-15T12:29:03;8.80;99.90
13310;DHT22;6723;48.256;16.402;2022-11-15T12:31:38;8.80;99.90
13310;DHT22;6723;48.256;16.402;2022-11-15T12:36:48;8.80;99.90
13310;DHT22;6723;48.256;16.402;2022-11-15T12:39:16;8.80;99.90
13310;DHT22;6723;48.256;16.402;2022-11-15T12:47:23;8.80;99.90
13310;DHT22;6723;48.256;16.402;2022-11-15T12:49:50;8.70;99.90
13310;DHT22;6723;48.256;16.402;2022-11-15T12:52:16;8.70;99.90
13310;DHT22;6723;48.256;16.402;2022-11-15T13:02:40;8.70;99.90
13310;DHT22;6723;48.256;16.402;2022-11-15T13:17:42;8.90;99.90
13310;DHT22;6723;48.256;16.402;2022-11-15T13:28:27;9.00;99.90
13310;DHT22;6723;48.256;16.402;2022-11-15T13:31:43;8.90;99.90
13310;DHT22;6723;48.256;16.402;2022-11-15T13:33:44;9.00;99.90
13310;DHT22;6723;48.256;16.402;2022-11-15T13:38:43;9.20;99.90
13310;DHT22;6723;48.256;16.402;2022-11-15T13:41:33;9.20;99.90
13310;DHT22;6723;48.256;16.402;2022-11-15T13:44:00;9.10;99.90
13310;DHT22;6723;48.256;16.402;2022-11-15T13:46:28;9.10;99.90
13310;DHT22;6723;48.256;16.402;2022-11-15T13:49:08;9.20;99.90
13310;DHT22;6723;48.256;16.402;2022-11-15T13:51:49;9.10;99.90
13310;DHT22;6723;48.256;16.402;2022-11-15T13:54:24;9.10;99.90
13310;DHT22;6723;48.256;16.402;2022-11-15T13:57:00;9.10;99.90
13310;DHT22;6723;48.256;16.402;2022-11-15T13:59:35;9.20;99.90
13310;DHT22;6723;48.256;16.402;2022-11-15T14:02:12;9.20;99.90
13310;DHT22;6723;48.256;16.402;2022-11-15T14:04:46;9.20;99.90
13310;DHT22;6723;48.256;16.402;2022-11-15T14:07:21;9.30;99.90
13310;DHT22;6723;48.256;16.402;2022-11-15T14:09:48;9.30;99.90
13310;DHT22;6723;48.256;16.402;2022-11-15T14:12:49;9.40;99.90
13310;DHT22;6723;48.256;16.402;2022-11-15T14:15:32;9.40;99.90
13310;DHT22;6723;48.256;16.402;2022-11-15T14:17:59;9.40;99.90
13310;DHT22;6723;48.256;16.402;2022-11-15T14:20:34;9.30;99.90
13310;DHT22;6723;48.256;16.402;2022-11-15T14:23:03;9.30;99.90
13310;DHT22;6723;48.256;16.402;2022-11-15T14:25:34;9.30;99.90
13310;DHT22;6723;48.256;16.402;2022-11-15T14:30:45;9.30;99.90
13310;DHT22;6723;48.256;16.402;2022-11-15T14:33:36;9.30;99.90
13310;DHT22;6723;48.256;16.402;2022-11-15T14:36:17;9.30;99.90
13310;DHT22;6723;48.256;16.402;2022-11-15T14:38:44;9.30;99.90
13310;DHT22;6723;48.256;16.402;2022-11-15T14:41:21;9.30;99.90
13310;DHT22;6723;48.256;16.402;2022-11-15T14:43:48;9.40;99.90
13310;DHT22;6723;48.256;16.402;2022-11-15T14:46:14;9.40;99.90
13310;DHT22;6723;48.256;16.402;2022-11-15T14:48:40;9.30;99.90
13310;DHT22;6723;48.256;16.402;2022-11-15T14:51:13;9.30;99.90
13310;DHT22;6723;48.256;16.402;2022-11-15T14:53:40;9.30;99.90
13310;DHT22;6723;48.256;16.402;2022-11-15T14:56:08;9.30;99.90
13310;DHT22;6723;48.256;16.402;2022-11-15T14:58:33;9.20;99.90
13310;DHT22;6723;48.256;16.402;2022-11-15T15:00:59;9.30;99.90
13310;DHT22;6723;48.256;16.402;2022-11-15T15:03:27;9.30;99.90
13310;DHT22;6723;48.256;16.402;2022-11-15T15:05:53;9.30;99.90
13310;DHT22;6723;48.256;16.402;2022-11-15T15:08:19;9.30;99.90
13310;DHT22;6723;48.256;16.402;2022-11-15T15:11:07;9.40;99.90
13310;DHT22;6723;48.256;16.402;2022-11-15T15:13:38;9.40;99.90
13310;DHT22;6723;48.256;16.402;2022-11-15T15:16:03;9.40;99.90
13310;DHT22;6723;48.256;16.402;2022-11-15T15:18:29;9.40;99.90
13310;DHT22;6723;48.256;16.402;2022-11-15T15:20:59;9.30;99.90
13310;DHT22;6723;48.256;16.402;2022-11-15T15:23:29;9.30;99.90
13310;DHT22;6723;48.256;16.402;2022-11-15T15:25:56;9.30;99.90
13310;DHT22;6723;48.256;16.402;2022-11-15T15:28:22;9.30;99.90
13310;DHT22;6723;48.256;16.402;2022-11-15T15:30:48;9.30;99.90
13310;DHT22;6723;48.256;16.402;2022-11-15T15:33:15;9.30;99.90
13310;DHT22;6723;48.256;16.402;2022-11-15T15:35:41;9.30;99.90
13310;DHT22;6723;48.256;16.402;2022-11-15T15:38:11;9.30;99.90
13310;DHT22;6723;48.256;16.402;2022-11-15T15:40:38;9.30;99.90
13310;DHT22;6723;48.256;16.402;2022-11-15T15:43:04;9.20;99.90
13310;DHT22;6723;48.256;16.402;2022-11-15T15:45:31;9.30;99.90
13310;DHT22;6723;48.256;16.402;2022-11-15T15:47:58;9.30;99.90
13310;DHT22;6723;48.256;16.402;2022-11-15T15:50:29;9.30;99.90
13310;DHT22;6723;48.256;16.402;2022-11-15T15:52:57;9.40;99.90
13310;DHT22;6723;48.256;16.402;2022-11-15T15:55:24;9.30;99.90
13310;DHT22;6723;48.256;16.402;2022-11-15T15:57:50;9.30;99.90
13310;DHT22;6723;48.256;16.402;2022-11-15T16:00:18;9.30;99.90
13310;DHT22;6723;48.256;16.402;2022-11-15T16:02:44;9.40;99.90
13310;DHT22;6723;48.256;16.402;2022-11-15T16:05:11;9.40;99.90
13310;DHT22;6723;48.256;16.402;2022-11-15T16:07:37;9.30;99.90
13310;DHT22;6723;48.256;16.402;2022-11-15T16:12:42;9.50;99.90
13310;DHT22;6723;48.256;16.402;2022-11-15T16:15:08;9.60;99.90
13310;DHT22;6723;48.256;16.402;2022-11-15T16:17:45;9.70;99.90
13310;DHT22;6723;48.256;16.402;2022-11-15T16:22:48;9.90;99.90
13310;DHT22;6723;48.256;16.402;2022-11-15T16:25:14;9.80;99.90
13310;DHT22;6723;48.256;16.402;2022-11-15T16:27:39;9.80;99.90
13310;DHT22;6723;48.256;16.402;2022-11-15T16:30:19;9.80;99.90
13310;DHT22;6723;48.256;16.402;2022-11-15T16:32:45;9.90;99.90
13310;DHT22;6723;48.256;16.402;2022-11-15T16:35:13;9.90;99.90
13310;DHT22;6723;48.256;16.402;2022-11-15T16:37:40;9.90;99.90
13310;DHT22;6723;48.256;16.402;2022-11-15T16:40:31;10.00;99.90
13310;DHT22;6723;48.256;16.402;2022-11-15T16:42:58;9.80;99.90
13310;DHT22;6723;48.256;16.402;2022-11-15T16:45:28;9.60;99.90
13310;DHT22;6723;48.256;16.402;2022-11-15T16:47:55;9.60;99.90
13310;DHT22;6723;48.256;16.402;2022-11-15T16:50:23;9.70;99.90
13310;DHT22;6723;48.256;16.402;2022-11-15T16:52:51;9.70;99.90
13310;DHT22;6723;48.256;16.402;2022-11-15T16:55:17;9.60;99.90
13310;DHT22;6723;48.256;16.402;2022-11-15T16:57:43;9.60;99.90
13310;DHT22;6723;48.256;16.402;2022-11-15T17:00:13;9.50;99.90
13310;DHT22;6723;48.256;16.402;2022-11-15T17:02:47;9.60;99.90
13310;DHT22;6723;48.256;16.402;2022-11-15T17:05:14;9.60;99.90
13310;DHT22;6723;48.256;16.402;2022-11-15T17:07:41;9.50;99.90
13310;DHT22;6723;48.256;16.402;2022-11-15T17:10:09;9.50;99.90
13310;DHT22;6723;48.256;16.402;2022-11-15T17:12:38;9.40;99.90
13310;DHT22;6723;48.256;16.402;2022-11-15T17:15:04;9.50;99.90
13310;DHT22;6723;48.256;16.402;2022-11-15T17:17:33;9.50;99.90
13310;DHT22;6723;48.256;16.402;2022-11-15T17:19:59;9.40;99.90
13310;DHT22;6723;48.256;16.402;2022-11-15T17:22:25;9.40;99.90
13310;DHT22;6723;48.256;16.402;2022-11-15T17:24:50;9.40;99.90
13310;DHT22;6723;48.256;16.402;2022-11-15T17:27:16;9.50;99.90
13310;DHT22;6723;48.256;16.402;2022-11-15T17:29:42;9.40;99.90
13310;DHT22;6723;48.256;16.402;2022-11-15T17:32:08;9.40;99.90
13310;DHT22;6723;48.256;16.402;2022-11-15T17:34:34;9.40;99.90
13310;DHT22;6723;48.256;16.402;2022-11-15T17:37:00;9.50;99.90
13310;DHT22;6723;48.256;16.402;2022-11-15T17:39:25;9.50;99.90
13310;DHT22;6723;48.256;16.402;2022-11-15T17:41:51;9.40;99.90
13310;DHT22;6723;48.256;16.402;2022-11-15T17:44:17;9.50;99.90
13310;DHT22;6723;48.256;16.402;2022-11-15T17:46:43;9.50;99.90
13310;DHT22;6723;48.256;16.402;2022-11-15T17:49:10;9.50;99.90
13310;DHT22;6723;48.256;16.402;2022-11-15T17:51:35;9.50;99.90
13310;DHT22;6723;48.256;16.402;2022-11-15T17:54:01;9.40;99.90
13310;DHT22;6723;48.256;16.402;2022-11-15T17:56:28;9.50;99.90
13310;DHT22;6723;48.256;16.402;2022-11-15T17:58:59;9.40;99.90
13310;DHT22;6723;48.256;16.402;2022-11-15T18:03:54;9.50;99.90
13310;DHT22;6723;48.256;16.402;2022-11-15T18:06:46;9.60;99.90
13310;DHT22;6723;48.256;16.402;2022-11-15T18:09:12;9.60;99.90
13310;DHT22;6723;48.256;16.402;2022-11-15T18:11:40;9.60;99.90
13310;DHT22;6723;48.256;16.402;2022-11-15T18:14:13;9.60;99.90
13310;DHT22;6723;48.256;16.402;2022-11-15T18:16:40;9.60;99.90
13310;DHT22;6723;48.256;16.402;2022-11-15T18:19:07;9.60;99.90